Time;durP1;ratioP1;P1;durP2;ratioP2;P2;SDS_P1;SDS_P2;PMS_P1;PMS_P2;Temp;Humidity;BMP_temperature;BMP_pressure;BME280_temperature;BME280_humidity;BME280_pressure;Samples;Min_cycle;Max_cycle;Signal;HPM_P1;HPM_P2
2021/10/17 00:01:16;;;;;;;7.43;5.45;;;4.30;99.90;;;;;;476157;245;27532;-76
2021/10/17 00:03:17;;;;;;;7.55;5.68;;;4.20;99.90;;;;;;476174;250;27487;-75
2021/10/17 00:05:18;;;;;;;6.78;5.40;;;4.20;99.90;;;;;;476167;250;27544;-75
2021/10/17 00:07:19;;;;;;;9.25;6.25;;;4.20;99.90;;;;;;476014;250;27880;-75
2021/10/17 00:09:21;;;;;;;6.43;5.72;;;4.20;99.90;;;;;;476195;250;27626;-76
2021/10/17 00:11:22;;;;;;;8.57;5.57;;;4.10;99.90;;;;;;476185;250;27602;-75
2021/10/17 00:13:23;;;;;;;8.25;5.80;;;4.00;99.90;;;;;;476147;250;27510;-75
2021/10/17 00:15:24;;;;;;;7.10;5.15;;;4.00;99.90;;;;;;476163;250;27522;-75
2021/10/17 00:17:26;;;;;;;7.47;5.95;;;4.00;99.90;;;;;;476150;250;28028;-76
2021/10/17 00:19:27;;;;;;;6.45;5.37;;;4.00;99.90;;;;;;476146;250;27964;-76
2021/10/17 00:21:28;;;;;;;8.07;5.70;;;4.00;99.90;;;;;;476125;250;28098;-76
2021/10/17 00:23:29;;;;;;;9.88;6.47;;;4.00;99.90;;;;;;476196;250;29025;-75
2021/10/17 00:25:31;;;;;;;9.23;5.90;;;4.10;99.90;;;;;;476152;250;27550;-75
2021/10/17 00:27:32;;;;;;;9.02;6.43;;;4.10;99.90;;;;;;476178;250;27678;-75
2021/10/17 00:29:33;;;;;;;10.63;7.25;;;4.10;99.90;;;;;;476180;250;27487;-75
2021/10/17 00:31:34;;;;;;;9.10;7.20;;;4.00;99.90;;;;;;476192;250;27514;-76
2021/10/17 00:33:36;;;;;;;8.45;6.30;;;4.00;99.90;;;;;;476184;250;27476;-75
2021/10/17 00:35:37;;;;;;;6.95;6.07;;;3.90;99.90;;;;;;476170;250;27491;-75
2021/10/17 00:37:38;;;;;;;10.50;6.50;;;4.00;99.90;;;;;;476171;250;27519;-75
2021/10/17 00:39:39;;;;;;;9.80;6.93;;;4.00;99.90;;;;;;476174;250;27505;-75
2021/10/17 00:41:41;;;;;;;9.70;6.15;;;4.10;99.90;;;;;;476194;250;27536;-75
2021/10/17 00:43:42;;;;;;;9.55;6.97;;;4.10;99.90;;;;;;476162;250;28814;-75
2021/10/17 00:45:43;;;;;;;9.10;6.62;;;4.10;99.90;;;;;;476168;250;28120;-75
2021/10/17 00:47:44;;;;;;;8.50;6.80;;;4.10;99.90;;;;;;476164;250;28008;-75
2021/10/17 00:49:47;;;;;;;9.00;6.37;;;4.20;99.90;;;;;;476138;250;27575;-75
2021/10/17 00:51:47;;;;;;;10.82;6.30;;;4.10;99.90;;;;;;476047;247;27630;-75
2021/10/17 00:53:48;;;;;;;9.30;6.05;;;4.20;99.90;;;;;;476144;250;27532;-75
2021/10/17 00:55:49;;;;;;;11.18;6.40;;;4.20;99.90;;;;;;476147;250;27493;-75
2021/10/17 00:57:51;;;;;;;10.00;6.80;;;4.10;99.90;;;;;;476149;250;27927;-75
2021/10/17 00:59:52;;;;;;;8.73;5.80;;;4.10;99.90;;;;;;476124;250;27606;-76
2021/10/17 01:01:53;;;;;;;8.73;6.32;;;4.10;99.90;;;;;;476105;250;27627;-76
2021/10/17 01:03:54;;;;;;;10.38;6.68;;;4.10;99.90;;;;;;476164;250;27639;-75
2021/10/17 01:05:56;;;;;;;8.25;5.95;;;4.10;99.90;;;;;;476127;250;28006;-76
2021/10/17 01:07:57;;;;;;;10.40;6.62;;;4.00;99.90;;;;;;476136;250;28004;-75
2021/10/17 01:09:58;;;;;;;8.40;5.75;;;4.00;99.90;;;;;;476111;250;29065;-73
2021/10/17 01:11:59;;;;;;;8.68;5.57;;;3.90;99.90;;;;;;476134;250;28791;-72
2021/10/17 01:14:01;;;;;;;7.07;5.53;;;3.90;99.90;;;;;;476176;250;27542;-72
2021/10/17 01:16:02;;;;;;;7.37;5.57;;;3.90;99.90;;;;;;476172;247;27533;-73
2021/10/17 01:18:03;;;;;;;7.03;5.20;;;3.90;99.90;;;;;;476165;250;27539;-76
2021/10/17 01:20:04;;;;;;;8.60;5.85;;;3.90;99.90;;;;;;476055;250;27519;-75
2021/10/17 01:22:06;;;;;;;7.62;5.50;;;3.80;99.90;;;;;;476153;250;27546;-73
2021/10/17 01:24:07;;;;;;;7.95;5.85;;;3.80;99.90;;;;;;476183;250;27532;-73
2021/10/17 01:26:08;;;;;;;9.55;5.95;;;3.80;99.90;;;;;;476199;250;27590;-73
2021/10/17 01:28:09;;;;;;;7.28;5.45;;;3.80;99.90;;;;;;476155;250;27615;-73
2021/10/17 01:30:11;;;;;;;6.18;4.95;;;3.80;99.90;;;;;;476170;250;27519;-73
2021/10/17 01:32:12;;;;;;;9.40;6.10;;;3.80;99.90;;;;;;476178;250;27565;-73
2021/10/17 01:34:13;;;;;;;6.75;5.05;;;3.70;99.90;;;;;;476765;249;28112;-75
2021/10/17 01:36:16;;;;;;;8.55;5.43;;;3.70;99.90;;;;;;475393;249;27874;-75
2021/10/17 01:38:16;;;;;;;7.87;5.80;;;3.70;99.90;;;;;;476078;250;29080;-75
2021/10/17 01:40:17;;;;;;;6.18;5.32;;;3.70;99.90;;;;;;476069;250;28005;-75
2021/10/17 01:42:18;;;;;;;6.32;5.10;;;3.60;99.90;;;;;;476135;250;27591;-75
2021/10/17 01:44:19;;;;;;;7.85;5.40;;;3.60;99.90;;;;;;476153;250;27525;-75
2021/10/17 01:46:21;;;;;;;7.78;5.32;;;3.60;99.90;;;;;;476176;250;27579;-75
2021/10/17 01:48:22;;;;;;;8.55;5.30;;;3.60;99.90;;;;;;476149;247;27551;-75
2021/10/17 01:50:23;;;;;;;6.20;5.15;;;3.60;99.90;;;;;;476141;250;27627;-74
2021/10/17 01:52:24;;;;;;;9.55;5.10;;;3.60;99.90;;;;;;476187;250;27591;-75
2021/10/17 01:54:26;;;;;;;5.43;4.85;;;3.60;99.90;;;;;;476176;250;27543;-75
2021/10/17 01:56:27;;;;;;;6.10;5.05;;;3.50;99.90;;;;;;476204;250;27591;-76
2021/10/17 01:58:30;;;;;;;5.95;4.62;;;3.50;99.90;;;;;;476165;250;27527;-75
2021/10/17 02:00:29;;;;;;;5.62;5.00;;;3.50;99.90;;;;;;476123;250;27510;-76
2021/10/17 02:02:31;;;;;;;5.85;4.68;;;3.50;99.90;;;;;;476212;250;28115;-76
2021/10/17 02:04:32;;;;;;;6.87;4.93;;;3.50;99.90;;;;;;476193;250;28026;-75
2021/10/17 02:06:33;;;;;;;5.10;4.28;;;3.40;99.90;;;;;;476204;250;28735;-75
2021/10/17 02:08:34;;;;;;;5.80;4.40;;;3.40;99.90;;;;;;476175;250;27503;-76
2021/10/17 02:10:36;;;;;;;7.78;5.10;;;3.40;99.90;;;;;;476173;250;27516;-75
2021/10/17 02:12:37;;;;;;;5.40;4.75;;;3.40;99.90;;;;;;476195;250;27574;-73
2021/10/17 02:14:38;;;;;;;7.43;5.25;;;3.50;99.90;;;;;;476202;250;27524;-72
2021/10/17 02:16:39;;;;;;;6.18;4.80;;;3.50;99.90;;;;;;476199;250;27559;-73
2021/10/17 02:18:41;;;;;;;7.72;4.95;;;3.60;99.90;;;;;;476193;247;27503;-73
2021/10/17 02:20:42;;;;;;;6.40;5.12;;;3.60;99.90;;;;;;476186;250;27548;-73
2021/10/17 02:22:43;;;;;;;7.03;5.12;;;3.60;99.90;;;;;;476189;250;27488;-73
2021/10/17 02:24:44;;;;;;;7.53;5.47;;;3.70;99.90;;;;;;476085;250;27570;-73
2021/10/17 02:26:46;;;;;;;6.28;4.70;;;3.80;99.90;;;;;;476175;250;27632;-73
2021/10/17 02:28:47;;;;;;;6.78;4.95;;;3.90;99.90;;;;;;476113;250;27951;-72
2021/10/17 02:30:48;;;;;;;7.60;5.28;;;4.00;99.90;;;;;;476197;250;27998;-72
2021/10/17 02:32:49;;;;;;;6.68;5.55;;;4.10;99.90;;;;;;476185;250;28024;-73
2021/10/17 02:34:51;;;;;;;7.12;5.12;;;4.20;99.90;;;;;;476171;250;27946;-73
2021/10/17 02:36:52;;;;;;;5.40;4.65;;;4.20;99.90;;;;;;476194;250;27550;-72
2021/10/17 02:38:53;;;;;;;5.35;4.47;;;4.20;99.90;;;;;;476194;250;27556;-73
2021/10/17 02:40:54;;;;;;;7.97;5.60;;;4.30;99.90;;;;;;476166;248;27618;-73
2021/10/17 02:42:56;;;;;;;6.82;5.25;;;4.20;99.90;;;;;;476185;250;27608;-73
2021/10/17 02:44:57;;;;;;;6.40;5.30;;;4.20;99.90;;;;;;476194;250;27492;-72
2021/10/17 02:46:58;;;;;;;6.78;4.87;;;4.30;99.90;;;;;;476237;250;27526;-75
2021/10/17 02:48:59;;;;;;;7.07;4.85;;;4.30;99.90;;;;;;476181;250;27577;-76
2021/10/17 02:51:01;;;;;;;6.82;5.47;;;4.30;99.90;;;;;;476185;250;27647;-73
2021/10/17 02:53:02;;;;;;;7.12;5.07;;;4.40;99.90;;;;;;476179;250;27522;-73
2021/10/17 02:55:03;;;;;;;5.68;4.57;;;4.50;99.90;;;;;;476189;250;27599;-74
2021/10/17 02:57:05;;;;;;;6.40;4.95;;;4.50;99.90;;;;;;476188;250;27977;-73
2021/10/17 02:59:06;;;;;;;7.12;5.32;;;4.50;99.90;;;;;;476172;250;28040;-74
2021/10/17 03:01:07;;;;;;;7.55;5.32;;;4.50;99.90;;;;;;476169;250;27999;-74
2021/10/17 03:03:08;;;;;;;5.15;4.35;;;4.50;99.90;;;;;;476149;250;27542;-73
2021/10/17 03:05:09;;;;;;;7.18;5.20;;;4.50;99.90;;;;;;476145;250;27621;-75
2021/10/17 03:07:11;;;;;;;6.82;4.75;;;4.50;99.90;;;;;;476198;250;27539;-74
2021/10/17 03:09:12;;;;;;;6.35;4.62;;;4.50;99.90;;;;;;476165;250;27855;-74
2021/10/17 03:11:13;;;;;;;5.90;5.20;;;4.60;99.90;;;;;;476137;250;27539;-74
2021/10/17 03:13:14;;;;;;;5.25;4.75;;;4.60;99.90;;;;;;476179;250;27888;-76
2021/10/17 03:15:16;;;;;;;6.10;4.72;;;4.60;99.90;;;;;;476178;250;27503;-76
2021/10/17 03:17:17;;;;;;;5.57;4.70;;;4.60;99.90;;;;;;475932;250;27615;-76
2021/10/17 03:19:18;;;;;;;6.82;4.93;;;4.70;99.90;;;;;;476739;249;27504;-75
2021/10/17 03:21:19;;;;;;;5.62;4.65;;;4.70;99.90;;;;;;476822;249;28001;-75
2021/10/17 03:23:21;;;;;;;6.12;4.60;;;4.70;99.90;;;;;;486132;244;27992;-76
2021/10/17 03:25:22;;;;;;;4.87;4.45;;;4.70;99.90;;;;;;476831;248;28462;-76
2021/10/17 03:27:23;;;;;;;5.30;4.53;;;4.70;99.90;;;;;;485947;244;27594;-75
2021/10/17 03:29:24;;;;;;;6.65;5.25;;;4.70;99.90;;;;;;476548;248;27474;-76
2021/10/17 03:31:26;;;;;;;7.62;5.12;;;4.70;99.90;;;;;;486183;244;27476;-76
2021/10/17 03:33:27;;;;;;;6.05;4.93;;;4.70;99.90;;;;;;476783;249;27527;-75
2021/10/17 03:35:28;;;;;;;5.65;4.62;;;4.70;99.90;;;;;;486061;244;27485;-73
2021/10/17 03:37:30;;;;;;;5.65;4.80;;;4.70;99.90;;;;;;476866;248;27527;-76
2021/10/17 03:39:31;;;;;;;9.52;4.87;;;4.70;99.90;;;;;;486100;244;27478;-76
2021/10/17 03:41:32;;;;;;;6.65;4.75;;;4.80;99.90;;;;;;476823;249;27622;-76
2021/10/17 03:43:33;;;;;;;6.62;4.90;;;4.80;99.90;;;;;;486143;244;27509;-76
2021/10/17 03:45:35;;;;;;;5.97;4.72;;;4.80;99.90;;;;;;476832;248;27984;-75
2021/10/17 03:47:36;;;;;;;6.90;4.80;;;4.90;99.90;;;;;;486170;244;27908;-76
2021/10/17 03:49:37;;;;;;;5.72;4.40;;;4.90;99.90;;;;;;476857;248;28204;-72
2021/10/17 03:51:38;;;;;;;6.50;4.62;;;4.90;99.90;;;;;;486150;244;27366;-73
2021/10/17 03:53:40;;;;;;;6.28;5.30;;;4.90;99.90;;;;;;476855;249;27531;-73
2021/10/17 03:55:41;;;;;;;5.57;4.97;;;5.00;99.90;;;;;;486210;244;27369;-73
2021/10/17 03:57:42;;;;;;;5.57;4.60;;;5.00;99.90;;;;;;476852;249;27539;-76
2021/10/17 03:59:43;;;;;;;6.35;4.60;;;5.00;99.90;;;;;;486197;244;27429;-76
2021/10/17 04:01:45;;;;;;;6.68;4.35;;;5.00;99.90;;;;;;476878;249;27492;-76
2021/10/17 04:06:12;;;;;;;5.70;4.70;;;5.00;99.90;;;;;;478513;246;27530;-79
2021/10/17 04:08:13;;;;;;;5.37;4.70;;;5.00;99.90;;;;;;484749;244;27535;-82
2021/10/17 04:10:15;;;;;;;6.60;4.70;;;5.00;99.90;;;;;;491271;240;27529;-78
2021/10/17 04:12:16;;;;;;;6.03;4.93;;;5.10;99.90;;;;;;491385;240;27546;-82
2021/10/17 04:14:17;;;;;;;8.23;5.12;;;5.00;99.90;;;;;;493349;236;28195;-79
2021/10/17 04:16:18;;;;;;;6.10;4.57;;;5.00;99.90;;;;;;496115;236;27605;-78
2021/10/17 04:18:20;;;;;;;6.53;4.80;;;5.00;99.90;;;;;;496180;236;27815;-77
2021/10/17 04:20:21;;;;;;;7.85;4.70;;;5.00;99.90;;;;;;496018;237;28013;-78
2021/10/17 04:22:22;;;;;;;6.30;4.45;;;5.00;99.90;;;;;;496102;236;27871;-78
2021/10/17 04:24:23;;;;;;;5.07;4.57;;;5.00;99.90;;;;;;496167;236;27523;-80
2021/10/17 04:26:25;;;;;;;5.03;4.47;;;5.00;99.90;;;;;;496132;237;27516;-79
2021/10/17 04:28:26;;;;;;;6.15;4.62;;;5.00;99.90;;;;;;496040;236;27498;-78
2021/10/17 04:30:27;;;;;;;6.50;4.43;;;5.00;99.90;;;;;;496048;237;27610;-79
2021/10/17 04:32:28;;;;;;;7.22;5.30;;;5.00;99.90;;;;;;496204;236;28198;-77
2021/10/17 04:34:30;;;;;;;6.37;4.57;;;4.90;99.90;;;;;;496076;236;27510;-81
2021/10/17 04:36:31;;;;;;;6.43;5.35;;;4.80;99.90;;;;;;496133;236;28166;-78
2021/10/17 04:38:32;;;;;;;5.22;4.72;;;4.70;99.90;;;;;;496046;237;27518;-79
2021/10/17 04:40:33;;;;;;;6.62;4.80;;;4.70;99.90;;;;;;496016;236;28024;-80
2021/10/17 04:42:35;;;;;;;8.25;6.03;;;4.70;99.90;;;;;;496105;237;27598;-81
2021/10/17 04:44:36;;;;;;;5.10;4.60;;;4.70;99.90;;;;;;495447;236;27850;-78
2021/10/17 04:46:37;;;;;;;7.65;5.15;;;4.80;99.90;;;;;;495439;237;27515;-80
2021/10/17 04:48:38;;;;;;;6.05;4.60;;;4.80;99.90;;;;;;495523;237;27684;-78
2021/10/17 04:50:40;;;;;;;6.37;4.85;;;4.90;99.90;;;;;;495469;236;27957;-78
2021/10/17 04:52:41;;;;;;;5.95;4.95;;;4.90;99.90;;;;;;496081;236;28202;-82
2021/10/17 04:54:42;;;;;;;7.18;4.65;;;4.90;99.90;;;;;;496057;236;28138;-79
2021/10/17 04:56:43;;;;;;;5.78;4.65;;;4.90;99.90;;;;;;496070;236;28160;-80
2021/10/17 04:58:45;;;;;;;6.47;5.00;;;5.00;99.90;;;;;;496071;236;27501;-78
2021/10/17 05:00:47;;;;;;;6.32;4.87;;;5.10;99.90;;;;;;496049;236;27562;-79
2021/10/17 05:02:47;;;;;;;5.95;5.05;;;5.10;99.90;;;;;;496013;236;27495;-79
2021/10/17 05:04:48;;;;;;;6.10;5.03;;;5.20;99.90;;;;;;496044;236;27527;-79
2021/10/17 05:06:50;;;;;;;5.53;5.03;;;5.20;99.90;;;;;;496038;237;27597;-79
2021/10/17 05:08:51;;;;;;;7.28;4.82;;;5.30;99.90;;;;;;495982;237;27532;-79
2021/10/17 05:10:52;;;;;;;7.50;5.15;;;5.30;99.90;;;;;;495435;237;27499;-80
2021/10/17 05:12:53;;;;;;;6.60;5.25;;;5.30;99.90;;;;;;496084;236;27563;-78
2021/10/17 05:14:55;;;;;;;5.90;4.82;;;5.20;99.90;;;;;;496139;236;28208;-81
2021/10/17 05:16:56;;;;;;;6.22;5.18;;;5.10;99.90;;;;;;496055;237;27524;-81
2021/10/17 05:18:57;;;;;;;5.60;4.78;;;5.10;99.90;;;;;;496127;237;28082;-79
2021/10/17 05:20:58;;;;;;;7.75;5.93;;;5.10;99.90;;;;;;496037;237;27502;-79
2021/10/17 05:23:00;;;;;;;6.37;4.70;;;5.10;99.90;;;;;;495480;236;27500;-80
2021/10/17 05:25:01;;;;;;;5.95;5.00;;;5.10;99.90;;;;;;495446;236;27488;-78
2021/10/17 05:27:02;;;;;;;6.30;4.85;;;5.10;99.90;;;;;;496046;236;27544;-80
2021/10/17 05:29:03;;;;;;;7.12;5.30;;;5.20;99.90;;;;;;496101;236;27542;-80
2021/10/17 05:31:05;;;;;;;5.80;4.80;;;5.20;99.90;;;;;;496137;237;27528;-79
2021/10/17 05:33:06;;;;;;;6.95;5.37;;;5.20;99.90;;;;;;496028;237;27502;-79
2021/10/17 05:35:07;;;;;;;8.10;5.30;;;5.20;99.90;;;;;;496039;236;28026;-81
2021/10/17 05:37:08;;;;;;;6.03;4.85;;;5.20;99.90;;;;;;496091;236;28177;-81
2021/10/17 05:39:10;;;;;;;5.95;4.68;;;5.20;99.90;;;;;;496033;237;27522;-79
2021/10/17 05:41:11;;;;;;;5.70;4.65;;;5.20;99.90;;;;;;496029;236;27511;-80
2021/10/17 05:43:12;;;;;;;5.50;4.90;;;5.20;99.90;;;;;;496047;237;27559;-82
2021/10/17 05:45:13;;;;;;;6.28;5.10;;;5.20;99.90;;;;;;496008;236;27848;-79
2021/10/17 05:47:15;;;;;;;6.30;4.80;;;5.20;99.90;;;;;;496026;237;27566;-77
2021/10/17 05:49:16;;;;;;;4.65;4.00;;;5.30;99.90;;;;;;496051;236;27504;-79
2021/10/17 05:51:17;;;;;;;5.43;4.32;;;5.30;99.90;;;;;;495979;236;27616;-80
2021/10/17 05:53:18;;;;;;;4.40;4.00;;;5.30;99.90;;;;;;496174;237;27572;-80
2021/10/17 05:55:20;;;;;;;5.12;4.35;;;5.40;99.90;;;;;;496083;236;28229;-80
2021/10/17 05:57:21;;;;;;;7.82;4.65;;;5.30;99.90;;;;;;496025;237;28199;-79
2021/10/17 05:59:22;;;;;;;5.53;4.70;;;5.20;99.90;;;;;;496042;237;27569;-81
2021/10/17 06:01:23;;;;;;;4.12;3.72;;;5.20;99.90;;;;;;496098;236;27814;-80
2021/10/17 06:03:25;;;;;;;5.57;4.40;;;5.30;99.90;;;;;;496032;236;27830;-77
2021/10/17 06:05:26;;;;;;;4.53;4.10;;;5.30;99.90;;;;;;496037;236;27563;-79
2021/10/17 06:07:27;;;;;;;3.72;3.42;;;5.30;99.90;;;;;;496080;237;27535;-79
2021/10/17 06:09:28;;;;;;;5.00;4.37;;;5.40;99.90;;;;;;495318;236;27818;-80
2021/10/17 06:11:32;;;;;;;5.60;4.00;;;5.30;99.90;;;;;;495175;236;27905;-81
2021/10/17 06:13:31;;;;;;;5.22;4.45;;;5.30;99.90;;;;;;494002;237;27436;-74
2021/10/17 06:15:32;;;;;;;6.10;4.55;;;5.30;99.90;;;;;;491985;241;27389;-74
2021/10/17 06:17:33;;;;;;;4.47;4.07;;;5.30;99.90;;;;;;491990;241;27390;-74
2021/10/17 06:19:35;;;;;;;6.03;4.70;;;5.40;99.90;;;;;;492013;241;27908;-74
2021/10/17 06:21:36;;;;;;;5.12;4.25;;;5.40;99.90;;;;;;491994;241;27954;-74
2021/10/17 06:23:37;;;;;;;4.78;4.25;;;5.40;99.90;;;;;;491999;241;27498;-74
2021/10/17 06:25:38;;;;;;;5.50;4.50;;;5.50;99.90;;;;;;492000;241;27461;-74
2021/10/17 06:27:40;;;;;;;4.72;3.95;;;5.50;99.90;;;;;;491987;241;27488;-74
2021/10/17 06:29:41;;;;;;;5.10;4.20;;;5.50;99.90;;;;;;492005;241;27449;-74
2021/10/17 06:31:42;;;;;;;5.00;4.37;;;5.50;99.90;;;;;;491989;241;27402;-74
2021/10/17 06:33:43;;;;;;;5.90;4.78;;;5.50;99.90;;;;;;491999;241;27452;-74
2021/10/17 06:35:45;;;;;;;4.45;3.70;;;5.50;99.90;;;;;;491979;241;27409;-74
2021/10/17 06:37:46;;;;;;;4.55;3.70;;;5.50;99.90;;;;;;491991;241;27873;-74
2021/10/17 06:39:47;;;;;;;5.05;4.55;;;5.50;99.90;;;;;;491970;240;27911;-74
2021/10/17 06:41:49;;;;;;;6.93;4.80;;;5.60;99.90;;;;;;491981;241;27493;-74
2021/10/17 06:43:50;;;;;;;6.22;4.40;;;5.60;99.90;;;;;;491961;241;27402;-74
2021/10/17 06:45:51;;;;;;;6.18;4.87;;;5.60;99.90;;;;;;491995;241;27467;-74
2021/10/17 06:47:52;;;;;;;5.35;4.20;;;5.70;99.90;;;;;;491996;241;27409;-74
2021/10/17 06:49:56;;;;;;;6.90;5.75;;;;;;;;;;491991;241;27377;-74
2021/10/17 06:51:58;;;;;;;5.20;4.40;;;;;;;;;;491986;240;26271;-74
2021/10/17 06:54:00;;;;;;;7.62;4.80;;;;;;;;;;491998;240;26358;-73
2021/10/17 06:56:02;;;;;;;6.40;5.03;;;;;;;;;;492000;240;26236;-74
2021/10/17 06:58:04;;;;;;;7.47;5.20;;;;;;;;;;491992;240;26705;-74
2021/10/17 07:00:06;;;;;;;7.65;5.32;;;;;;;;;;492009;240;26304;-75
2021/10/17 07:02:08;;;;;;;9.57;6.30;;;;;;;;;;491996;240;26715;-74
2021/10/17 07:04:10;;;;;;;12.50;7.12;;;;;;;;;;491984;240;26318;-74
2021/10/17 07:06:12;;;;;;;9.70;6.60;;;;;;;;;;492008;240;26285;-73
2021/10/17 07:08:15;;;;;;;10.63;6.40;;;;;;;;;;491981;240;26247;-74
2021/10/17 07:10:17;;;;;;;12.37;7.20;;;;;;;;;;491975;240;26251;-74
2021/10/17 07:12:19;;;;;;;11.20;7.22;;;;;;;;;;491997;240;26801;-74
2021/10/17 07:14:21;;;;;;;11.93;7.30;;;;;;;;;;492113;240;26265;-74
2021/10/17 07:16:23;;;;;;;15.35;7.70;;;;;;;;;;493328;241;27544;-73
2021/10/17 07:18:25;;;;;;;12.93;8.10;;;;;;;;;;491940;241;26352;-74
2021/10/17 07:20:27;;;;;;;11.23;6.00;;;;;;;;;;491946;242;26618;-74
2021/10/17 07:22:29;;;;;;;11.05;6.82;;;;;;;;;;491944;242;26292;-74
2021/10/17 07:24:32;;;;;;;12.50;7.60;;;;;;;;;;491946;242;26336;-74
2021/10/17 07:26:34;;;;;;;10.75;6.30;;;;;;;;;;491943;242;26355;-74
2021/10/17 07:28:36;;;;;;;9.98;6.43;;;;;;;;;;491957;242;26811;-75
2021/10/17 07:30:38;;;;;;;11.80;7.07;;;;;;;;;;491936;242;26300;-74
2021/10/17 07:32:40;;;;;;;10.55;7.12;;;;;;;;;;491969;242;26289;-74
2021/10/17 07:34:42;;;;;;;12.67;7.57;;;;;;;;;;491960;242;26404;-74
2021/10/17 07:36:44;;;;;;;10.82;6.82;;;;;;;;;;491961;242;27322;-74
2021/10/17 07:38:46;;;;;;;9.32;6.60;;;;;;;;;;491942;242;26846;-74
2021/10/17 07:40:49;;;;;;;11.85;6.37;;;;;;;;;;491937;242;26300;-76
2021/10/17 07:42:51;;;;;;;12.40;6.60;;;;;;;;;;491937;242;26237;-74
2021/10/17 07:44:53;;;;;;;10.40;7.10;;;;;;;;;;491951;242;26253;-74
2021/10/17 07:46:55;;;;;;;11.30;6.70;;;;;;;;;;491937;242;26678;-74
2021/10/17 07:48:58;;;;;;;10.95;6.50;;;;;;;;;;491961;242;26804;-74
2021/10/17 07:50:59;;;;;;;10.77;7.03;;;;;;;;;;491941;242;26344;-74
2021/10/17 07:53:00;;;;;;;10.40;6.60;;;6.90;99.90;;;;;;491963;242;26579;-74
2021/10/17 07:55:02;;;;;;;12.00;7.50;;;7.00;99.90;;;;;;491979;242;27483;-75
2021/10/17 07:57:03;;;;;;;11.20;7.33;;;7.10;99.90;;;;;;491975;241;27757;-74
2021/10/17 07:59:04;;;;;;;10.03;6.37;;;7.10;99.90;;;;;;491991;242;28033;-75
2021/10/17 08:01:05;;;;;;;8.60;6.10;;;7.20;99.90;;;;;;491972;241;28463;-75
2021/10/17 08:03:07;;;;;;;9.37;6.27;;;7.30;99.90;;;;;;492012;241;27374;-75
2021/10/17 08:05:08;;;;;;;11.83;7.30;;;7.40;99.90;;;;;;491943;241;27887;-75
2021/10/17 08:07:09;;;;;;;10.57;5.87;;;7.40;99.90;;;;;;491947;241;28459;-75
2021/10/17 08:09:10;;;;;;;9.80;6.87;;;7.50;99.90;;;;;;491953;241;28320;-74
2021/10/17 08:11:12;;;;;;;8.20;6.00;;;7.60;99.90;;;;;;491971;241;28487;-75
2021/10/17 08:13:13;;;;;;;8.80;6.07;;;7.60;99.90;;;;;;491954;242;27928;-75
2021/10/17 08:15:14;;;;;;;7.40;5.30;;;7.60;99.90;;;;;;491967;241;27892;-75
2021/10/17 08:17:15;;;;;;;8.47;5.77;;;7.70;99.90;;;;;;491989;241;27411;-75
2021/10/17 08:19:17;;;;;;;9.30;5.43;;;7.70;99.90;;;;;;491970;241;27924;-75
2021/10/17 08:21:18;;;;;;;7.50;5.80;;;7.70;99.90;;;;;;491955;241;27825;-75
2021/10/17 08:23:19;;;;;;;10.17;5.43;;;7.80;99.90;;;;;;491992;242;27879;-75
2021/10/17 08:25:20;;;;;;;7.07;5.43;;;7.80;99.90;;;;;;491987;239;27867;-75
2021/10/17 08:27:22;;;;;;;7.80;5.23;;;7.80;99.90;;;;;;491967;241;27932;-75
2021/10/17 08:29:23;;;;;;;7.50;5.60;;;7.90;99.90;;;;;;491970;241;27496;-76
2021/10/17 08:31:24;;;;;;;6.43;5.23;;;8.00;99.90;;;;;;491967;241;27952;-75
2021/10/17 08:33:26;;;;;;;6.80;5.20;;;8.10;99.90;;;;;;492000;241;27822;-75
2021/10/17 08:35:27;;;;;;;6.17;5.23;;;8.20;99.90;;;;;;491955;241;27955;-75
2021/10/17 08:37:30;;;;;;;6.77;5.20;;;8.30;99.90;;;;;;491982;241;27946;-74
2021/10/17 08:39:29;;;;;;;6.93;5.30;;;8.40;99.90;;;;;;491884;242;27835;-75
2021/10/17 08:41:30;;;;;;;7.17;5.20;;;8.50;99.90;;;;;;491980;241;27944;-75
2021/10/17 08:43:32;;;;;;;7.93;5.53;;;8.60;99.90;;;;;;491934;241;28042;-75
2021/10/17 08:45:33;;;;;;;8.17;5.33;;;8.50;99.90;;;;;;491936;241;28252;-76
2021/10/17 08:47:34;;;;;;;5.80;4.90;;;8.70;99.90;;;;;;491961;241;28367;-75
2021/10/17 08:49:35;;;;;;;8.37;5.60;;;8.80;99.90;;;;;;491944;241;28470;-75
2021/10/17 08:51:37;;;;;;;9.40;5.50;;;8.70;99.90;;;;;;491942;241;28242;-75
2021/10/17 08:53:38;;;;;;;7.63;6.10;;;8.80;99.90;;;;;;491971;241;28040;-76
2021/10/17 08:55:39;;;;;;;6.57;5.00;;;8.90;99.90;;;;;;491955;239;28051;-76
2021/10/17 08:57:40;;;;;;;9.03;6.60;;;8.90;99.90;;;;;;491949;241;28083;-76
2021/10/17 08:59:42;;;;;;;8.57;6.43;;;8.80;99.90;;;;;;491890;242;27848;-76
2021/10/17 09:01:43;;;;;;;9.00;5.73;;;8.90;99.90;;;;;;491899;241;27764;-76
2021/10/17 09:03:44;;;;;;;7.90;5.97;;;9.00;99.90;;;;;;491974;242;27509;-75
2021/10/17 09:05:45;;;;;;;7.37;5.60;;;9.10;99.90;;;;;;491953;241;28344;-75
2021/10/17 09:07:47;;;;;;;7.60;5.90;;;9.20;99.90;;;;;;491674;241;27901;-76
2021/10/17 09:09:48;;;;;;;9.60;6.50;;;9.30;99.90;;;;;;491699;242;28214;-76
2021/10/17 09:11:49;;;;;;;10.43;7.50;;;9.30;99.90;;;;;;491974;241;27478;-76
2021/10/17 09:13:50;;;;;;;9.13;6.53;;;9.20;99.90;;;;;;491972;242;27828;-76
2021/10/17 09:15:55;;;;;;;8.33;6.27;;;9.30;99.90;;;;;;491957;241;27751;-76
2021/10/17 09:17:53;;;;;;;7.30;5.97;;;9.40;99.90;;;;;;491745;242;27943;-75
2021/10/17 09:19:54;;;;;;;9.60;6.80;;;9.40;99.90;;;;;;491977;241;28439;-75
2021/10/17 09:21:55;;;;;;;8.40;6.47;;;9.40;99.90;;;;;;491954;241;28387;-76
2021/10/17 09:23:58;;;;;;;7.00;6.30;;;9.40;99.90;;;;;;491947;241;28379;-76
2021/10/17 09:25:58;;;;;;;8.43;6.40;;;9.40;99.90;;;;;;491924;242;27951;-76
2021/10/17 09:27:59;;;;;;;9.77;6.53;;;9.50;99.90;;;;;;491966;241;28295;-75
2021/10/17 09:30:00;;;;;;;10.20;6.53;;;9.60;99.90;;;;;;491960;241;27880;-76
2021/10/17 09:32:02;;;;;;;8.43;6.90;;;9.60;99.90;;;;;;491968;241;27858;-75
2021/10/17 09:34:03;;;;;;;8.47;6.67;;;9.80;99.90;;;;;;491959;241;27753;-75
2021/10/17 09:36:04;;;;;;;9.80;6.87;;;9.80;99.90;;;;;;492001;241;27625;-75
2021/10/17 09:38:05;;;;;;;9.03;6.53;;;9.80;99.90;;;;;;491968;241;27880;-75
2021/10/17 09:40:07;;;;;;;9.37;6.60;;;9.90;99.90;;;;;;491940;241;27912;-75
2021/10/17 09:42:08;;;;;;;7.20;5.87;;;9.90;99.90;;;;;;491984;241;27977;-75
2021/10/17 09:44:09;;;;;;;8.20;6.30;;;9.80;99.90;;;;;;491975;239;27899;-75
2021/10/17 09:46:10;;;;;;;8.50;6.70;;;9.80;99.90;;;;;;492005;241;27749;-75
2021/10/17 09:48:12;;;;;;;7.40;6.17;;;9.90;99.90;;;;;;491962;242;27637;-75
2021/10/17 09:50:13;;;;;;;7.07;6.03;;;9.90;99.90;;;;;;491970;241;27897;-74
2021/10/17 09:52:15;;;;;;;7.43;5.73;;;9.90;99.90;;;;;;491969;241;27939;-75
2021/10/17 09:54:15;;;;;;;7.43;5.40;;;10.10;99.90;;;;;;491926;242;27842;-75
2021/10/17 09:56:17;;;;;;;8.07;6.03;;;10.30;99.90;;;;;;492008;242;28429;-76
2021/10/17 09:58:18;;;;;;;11.57;7.57;;;10.60;99.90;;;;;;492005;241;28352;-75
2021/10/17 10:00:19;;;;;;;8.40;6.80;;;10.50;99.90;;;;;;491987;239;28407;-75
2021/10/17 10:02:20;;;;;;;8.53;6.57;;;10.40;99.90;;;;;;491997;241;27931;-75
2021/10/17 10:04:22;;;;;;;9.27;6.60;;;10.40;99.90;;;;;;492002;241;27841;-75
2021/10/17 10:06:23;;;;;;;10.17;7.00;;;10.40;99.90;;;;;;491868;241;27847;-75
2021/10/17 10:08:24;;;;;;;11.10;7.07;;;10.30;99.90;;;;;;491961;241;27846;-75
2021/10/17 10:10:25;;;;;;;9.13;5.80;;;10.20;99.90;;;;;;492004;241;27866;-75
2021/10/17 10:12:27;;;;;;;8.77;5.80;;;10.00;99.90;;;;;;491950;242;27883;-74
2021/10/17 10:14:28;;;;;;;8.63;6.10;;;9.80;99.90;;;;;;491980;242;27875;-74
2021/10/17 10:16:29;;;;;;;8.90;6.20;;;9.70;99.90;;;;;;491968;241;27862;-75
2021/10/17 10:18:30;;;;;;;8.70;6.77;;;9.70;99.90;;;;;;491987;241;27818;-75
2021/10/17 10:20:32;;;;;;;9.33;6.47;;;9.70;99.90;;;;;;491962;242;27847;-74
2021/10/17 10:22:33;;;;;;;7.50;5.97;;;9.70;99.90;;;;;;491955;241;27820;-74
2021/10/17 10:24:34;;;;;;;6.93;5.37;;;9.70;99.90;;;;;;491965;239;27899;-75
2021/10/17 10:26:35;;;;;;;6.50;5.80;;;9.70;99.90;;;;;;491956;241;28326;-75
2021/10/17 10:28:37;;;;;;;9.13;6.13;;;9.70;99.90;;;;;;491951;242;27966;-74
2021/10/17 10:30:38;;;;;;;7.23;5.40;;;9.70;99.90;;;;;;491945;241;27943;-75
2021/10/17 10:32:39;;;;;;;6.70;5.53;;;9.70;99.90;;;;;;491928;241;28348;-75
2021/10/17 10:34:40;;;;;;;7.50;5.50;;;9.80;99.90;;;;;;491916;241;28320;-75
2021/10/17 10:36:42;;;;;;;6.83;5.60;;;9.70;99.90;;;;;;491936;242;28309;-75
2021/10/17 10:38:43;;;;;;;7.80;6.07;;;9.70;99.90;;;;;;491969;241;28521;-75
2021/10/17 10:40:44;;;;;;;7.83;5.57;;;9.60;99.90;;;;;;491915;241;28482;-76
2021/10/17 10:42:46;;;;;;;6.13;5.40;;;9.60;99.90;;;;;;491918;241;27953;-74
2021/10/17 10:44:49;;;;;;;7.50;5.40;;;9.60;99.90;;;;;;491933;241;27838;-75
2021/10/17 10:46:48;;;;;;;7.93;6.23;;;9.60;99.90;;;;;;491794;242;27887;-75
2021/10/17 10:48:49;;;;;;;7.13;5.40;;;9.60;99.90;;;;;;491953;241;27762;-76